Time;durP1;ratioP1;P1;durP2;ratioP2;P2;SDS_P1;SDS_P2;PMS_P1;PMS_P2;Temp;Humidity;BMP_temperature;BMP_pressure;BME280_temperature;BME280_humidity;BME280_pressure;Samples;Min_cycle;Max_cycle;Signal;HPM_P1;HPM_P2
2021/08/06 00:02:14;;;;;;;2.45;1.33;;;14.20;99.90;;;;;;4970599;28;20026;-84
2021/08/06 00:04:39;;;;;;;1.42;1.33;;;14.10;99.90;;;;;;4970961;28;20030;-84
2021/08/06 00:07:05;;;;;;;1.73;1.63;;;14.10;99.90;;;;;;5050547;28;20101;-84
2021/08/06 00:09:35;;;;;;;1.65;1.55;;;14.10;99.90;;;;;;4951881;28;20034;-84
2021/08/06 00:12:00;;;;;;;1.73;1.58;;;14.10;99.90;;;;;;4956673;28;20065;-84
2021/08/06 00:14:26;;;;;;;2.47;1.80;;;14.10;99.90;;;;;;4969767;28;20060;-84
2021/08/06 00:16:53;;;;;;;1.85;1.73;;;14.10;99.90;;;;;;4970518;28;20062;-84
2021/08/06 00:19:19;;;;;;;1.50;1.40;;;14.10;99.90;;;;;;5054800;28;20054;-84
2021/08/06 00:21:45;;;;;;;1.90;1.80;;;14.10;99.90;;;;;;4957971;28;20041;-84
2021/08/06 00:24:11;;;;;;;2.42;2.22;;;14.10;99.90;;;;;;5058088;28;20475;-84
2021/08/06 00:26:37;;;;;;;2.08;1.98;;;14.10;99.90;;;;;;4973836;28;20551;-84
2021/08/06 00:29:03;;;;;;;3.63;2.20;;;14.10;99.90;;;;;;4974243;28;20051;-84
2021/08/06 00:31:29;;;;;;;2.15;1.95;;;14.10;99.90;;;;;;4972646;28;20031;-84
2021/08/06 00:33:54;;;;;;;6.88;3.10;;;14.10;99.90;;;;;;5054498;28;20506;-84
2021/08/06 00:36:20;;;;;;;2.20;2.00;;;14.00;99.90;;;;;;4954543;28;20122;-84
2021/08/06 00:38:46;;;;;;;2.88;2.63;;;14.00;99.90;;;;;;4974122;28;20088;-85
2021/08/06 00:41:11;;;;;;;2.30;2.10;;;14.00;99.90;;;;;;5057682;28;20031;-84
2021/08/06 00:43:37;;;;;;;2.70;2.50;;;14.00;99.90;;;;;;4974028;28;20114;-84
2021/08/06 00:46:03;;;;;;;2.00;1.90;;;14.00;99.90;;;;;;4988916;28;20073;-84
2021/08/06 00:48:29;;;;;;;2.78;2.58;;;14.10;99.90;;;;;;4973574;28;20035;-84
2021/08/06 00:50:55;;;;;;;3.17;2.65;;;14.10;99.90;;;;;;4988977;28;20041;-84
2021/08/06 00:53:22;;;;;;;2.75;2.22;;;14.10;99.90;;;;;;4972660;28;20023;-84
2021/08/06 00:55:48;;;;;;;3.05;2.83;;;14.10;99.90;;;;;;4973958;28;20015;-84
2021/08/06 00:58:14;;;;;;;2.50;2.30;;;14.10;99.90;;;;;;4971896;28;20400;-84
2021/08/06 01:00:40;;;;;;;3.10;2.90;;;14.10;99.90;;;;;;4988821;28;20478;-84
2021/08/06 01:03:25;;;;;;;2.75;2.55;;;14.10;99.90;;;;;;4973141;28;20119;-83
2021/08/06 01:06:14;;;;;;;2.50;2.33;;;14.10;99.90;;;;;;4973798;28;20060;-84
2021/08/06 01:08:54;;;;;;;3.75;2.95;;;14.10;99.90;;;;;;4973248;28;20096;-84
2021/08/06 01:11:25;;;;;;;3.22;2.65;;;14.10;99.90;;;;;;4971861;28;20045;-84
2021/08/06 01:13:55;;;;;;;3.20;2.90;;;14.10;99.90;;;;;;5054287;28;20051;-82
2021/08/06 01:16:33;;;;;;;3.03;2.83;;;14.10;99.90;;;;;;4956574;28;20023;-81
2021/08/06 01:19:36;;;;;;;2.58;2.38;;;14.10;99.90;;;;;;4973516;28;20102;-80
2021/08/06 01:22:15;;;;;;;3.00;2.80;;;14.10;99.90;;;;;;4981767;28;20035;-80
2021/08/06 01:24:43;;;;;;;2.67;2.33;;;14.10;99.90;;;;;;5053961;28;20043;-81
2021/08/06 01:27:10;;;;;;;2.88;2.55;;;14.10;99.90;;;;;;4960822;28;20477;-81
2021/08/06 01:29:36;;;;;;;2.40;2.20;;;14.10;99.90;;;;;;4970990;28;20088;-80
2021/08/06 01:32:02;;;;;;;2.63;2.45;;;14.10;99.90;;;;;;4972725;28;20164;-80
2021/08/06 01:34:28;;;;;;;2.60;2.40;;;14.00;99.90;;;;;;4973371;28;20492;-80
2021/08/06 01:36:53;;;;;;;2.85;2.65;;;14.00;99.90;;;;;;4972900;28;20023;-80
2021/08/06 01:39:20;;;;;;;2.55;2.35;;;14.00;99.90;;;;;;4973018;28;20034;-80
2021/08/06 01:41:56;;;;;;;2.13;1.88;;;13.90;99.90;;;;;;4987513;28;20026;-80
2021/08/06 01:44:51;;;;;;;1.88;1.77;;;14.00;99.90;;;;;;4987950;28;20408;-81
2021/08/06 01:47:29;;;;;;;2.83;2.15;;;13.90;99.90;;;;;;4979346;28;20492;-81
2021/08/06 01:50:13;;;;;;;2.58;2.38;;;13.90;99.90;;;;;;4952441;29;20035;-81
2021/08/06 01:52:49;;;;;;;3.17;2.97;;;13.90;99.90;;;;;;4987117;28;20026;-81
2021/08/06 01:55:16;;;;;;;2.92;2.72;;;13.90;99.90;;;;;;5056649;28;20034;-82
2021/08/06 01:57:46;;;;;;;4.75;3.63;;;13.90;99.90;;;;;;4972726;28;20027;-81
2021/08/06 02:00:12;;;;;;;3.92;3.30;;;13.90;99.90;;;;;;4971766;28;20055;-81
2021/08/06 02:02:39;;;;;;;3.22;3.03;;;13.80;99.90;;;;;;4972126;28;20031;-81
2021/08/06 02:05:05;;;;;;;3.08;2.88;;;13.90;99.90;;;;;;4972364;28;20403;-81
2021/08/06 02:07:31;;;;;;;3.50;3.30;;;13.80;99.90;;;;;;4971003;28;20057;-81
2021/08/06 02:09:57;;;;;;;3.20;3.00;;;13.80;99.90;;;;;;4972842;28;20023;-82
2021/08/06 02:12:23;;;;;;;3.08;2.88;;;13.80;99.90;;;;;;4972761;28;20034;-82
2021/08/06 02:14:48;;;;;;;2.88;2.67;;;13.80;99.90;;;;;;4971596;28;20035;-81
2021/08/06 02:17:15;;;;;;;3.00;2.80;;;13.80;99.90;;;;;;4971238;28;20022;-81
2021/08/06 02:19:43;;;;;;;3.00;2.63;;;13.70;99.90;;;;;;4972719;28;20507;-80
2021/08/06 02:22:09;;;;;;;2.83;2.63;;;13.80;99.90;;;;;;4970866;28;20059;-80
2021/08/06 02:24:36;;;;;;;2.97;2.78;;;13.70;99.90;;;;;;4971409;28;20039;-80
2021/08/06 02:27:03;;;;;;;3.40;3.20;;;13.70;99.90;;;;;;4971995;28;20019;-81
2021/08/06 02:29:29;;;;;;;3.38;3.10;;;13.70;99.90;;;;;;4972563;28;20019;-81
2021/08/06 02:31:58;;;;;;;2.90;2.70;;;13.70;99.90;;;;;;4986979;28;20481;-80
2021/08/06 02:34:25;;;;;;;2.42;2.33;;;13.70;99.90;;;;;;5052620;28;20118;-81
2021/08/06 02:36:52;;;;;;;2.50;2.40;;;13.60;99.90;;;;;;4960570;28;20117;-81
2021/08/06 02:39:20;;;;;;;2.22;2.13;;;13.60;99.90;;;;;;4970972;28;20034;-81
2021/08/06 02:41:46;;;;;;;2.40;2.25;;;13.60;99.90;;;;;;4971834;28;20034;-81
2021/08/06 02:44:13;;;;;;;2.67;2.40;;;13.50;99.90;;;;;;5052521;28;20130;-81
2021/08/06 02:46:39;;;;;;;2.67;2.47;;;13.50;99.90;;;;;;4955650;28;20097;-80
2021/08/06 02:49:05;;;;;;;2.25;2.15;;;13.50;99.90;;;;;;4970826;28;20485;-81
2021/08/06 02:51:31;;;;;;;2.67;2.55;;;13.50;99.90;;;;;;4970576;28;20051;-81
2021/08/06 02:53:56;;;;;;;2.35;2.10;;;13.50;99.90;;;;;;4972018;28;20046;-80
2021/08/06 02:56:22;;;;;;;2.30;2.10;;;13.40;99.90;;;;;;4971624;28;20031;-79
2021/08/06 02:58:48;;;;;;;2.38;2.28;;;13.40;99.90;;;;;;5055112;28;20418;-80
2021/08/06 03:01:14;;;;;;;2.10;1.90;;;13.40;99.90;;;;;;4971466;28;20077;-80
2021/08/06 03:03:39;;;;;;;1.88;1.77;;;13.40;99.90;;;;;;5052234;28;20134;-80
2021/08/06 03:06:05;;;;;;;2.05;1.95;;;13.30;99.90;;;;;;4967575;28;20038;-80
2021/08/06 03:08:31;;;;;;;3.35;2.58;;;13.40;99.90;;;;;;4985492;28;20023;-81
2021/08/06 03:10:57;;;;;;;2.28;2.17;;;13.30;99.90;;;;;;4971933;28;20065;-80
2021/08/06 03:13:22;;;;;;;2.17;2.08;;;13.30;99.90;;;;;;4970099;28;20118;-80
2021/08/06 03:15:48;;;;;;;2.35;2.25;;;13.30;99.90;;;;;;4971927;28;20026;-80
2021/08/06 03:18:14;;;;;;;2.42;2.33;;;13.30;99.90;;;;;;4971251;28;20062;-81
2021/08/06 03:20:39;;;;;;;2.50;2.30;;;13.30;99.90;;;;;;4970586;28;20015;-81
2021/08/06 03:23:05;;;;;;;2.20;2.10;;;13.30;99.90;;;;;;4969763;28;20038;-80
2021/08/06 03:25:31;;;;;;;2.10;2.00;;;13.30;99.90;;;;;;4970529;28;20400;-81
2021/08/06 03:27:58;;;;;;;1.80;1.70;;;13.30;99.90;;;;;;4971222;28;20031;-81
2021/08/06 03:30:24;;;;;;;1.95;1.85;;;13.20;99.90;;;;;;4970409;28;20034;-82
2021/08/06 03:32:49;;;;;;;2.03;1.90;;;13.20;99.90;;;;;;4969670;28;20030;-82
2021/08/06 03:35:15;;;;;;;2.00;1.90;;;13.20;99.90;;;;;;4971518;28;20035;-82
2021/08/06 03:37:42;;;;;;;1.95;1.85;;;13.20;99.90;;;;;;4971116;28;20027;-82
2021/08/06 03:40:09;;;;;;;2.00;1.90;;;13.20;99.90;;;;;;4971986;28;20031;-82
2021/08/06 03:42:35;;;;;;;2.22;2.00;;;13.20;99.90;;;;;;4970988;28;20023;-82
2021/08/06 03:45:00;;;;;;;2.15;1.95;;;13.20;99.90;;;;;;5051569;28;20028;-82
2021/08/06 03:47:26;;;;;;;3.60;1.90;;;13.20;99.90;;;;;;4962089;28;20110;-82
2021/08/06 03:49:51;;;;;;;2.35;2.25;;;13.20;99.90;;;;;;5054837;28;20110;-82
2021/08/06 03:52:18;;;;;;;2.30;2.20;;;13.20;99.90;;;;;;4970193;28;20027;-81
2021/08/06 03:54:44;;;;;;;2.55;2.08;;;13.10;99.90;;;;;;4971317;28;20023;-81
2021/08/06 03:57:09;;;;;;;2.70;2.50;;;13.10;99.90;;;;;;4971028;28;20023;-82
2021/08/06 03:59:35;;;;;;;3.17;2.88;;;13.10;99.90;;;;;;4970114;28;20027;-81
2021/08/06 04:02:01;;;;;;;5.07;2.30;;;13.10;99.90;;;;;;4970752;28;20022;-81
2021/08/06 04:04:27;;;;;;;2.72;2.53;;;13.10;99.90;;;;;;5051405;28;20485;-81
2021/08/06 04:06:52;;;;;;;2.92;2.65;;;13.10;99.90;;;;;;4956601;28;20019;-82
2021/08/06 04:09:18;;;;;;;3.88;3.58;;;13.10;99.90;;;;;;4969817;28;20050;-82
2021/08/06 04:11:44;;;;;;;3.33;3.00;;;13.10;99.90;;;;;;4970656;28;20098;-82
2021/08/06 04:14:10;;;;;;;2.90;2.70;;;13.10;99.90;;;;;;4970976;28;20030;-82
2021/08/06 04:16:36;;;;;;;3.40;3.10;;;13.10;99.90;;;;;;4970696;28;20422;-81
2021/08/06 04:19:02;;;;;;;3.35;2.70;;;13.10;99.90;;;;;;4970798;28;20125;-81
2021/08/06 04:21:27;;;;;;;3.60;3.30;;;13.10;99.90;;;;;;4970644;28;20031;-81
2021/08/06 04:23:53;;;;;;;3.80;3.40;;;13.20;99.90;;;;;;4970775;28;20043;-81
2021/08/06 04:26:18;;;;;;;3.55;3.25;;;13.20;99.90;;;;;;4985482;28;20100;-81
2021/08/06 04:28:44;;;;;;;3.50;3.20;;;13.20;99.90;;;;;;4969615;28;20073;-82
2021/08/06 04:31:10;;;;;;;3.80;3.50;;;13.20;99.90;;;;;;4970487;28;20027;-81
2021/08/06 04:33:36;;;;;;;3.92;3.58;;;13.20;99.90;;;;;;4977331;28;20038;-81
2021/08/06 04:36:01;;;;;;;8.68;4.95;;;13.20;99.90;;;;;;4970824;28;20026;-81
2021/08/06 04:38:27;;;;;;;3.58;3.38;;;13.20;99.90;;;;;;4970277;28;20065;-81
2021/08/06 04:40:53;;;;;;;3.53;3.22;;;13.20;99.90;;;;;;4985727;28;20452;-82
2021/08/06 04:43:21;;;;;;;3.33;2.92;;;13.20;99.90;;;;;;4970466;28;20043;-82
2021/08/06 04:45:50;;;;;;;4.15;3.80;;;13.20;99.90;;;;;;4970745;28;20069;-82
2021/08/06 04:48:19;;;;;;;3.58;3.28;;;13.20;99.90;;;;;;4967516;28;20046;-82
2021/08/06 04:50:45;;;;;;;3.67;3.38;;;13.20;99.90;;;;;;4968862;28;20035;-82
2021/08/06 04:53:11;;;;;;;3.15;2.95;;;13.20;99.90;;;;;;4984847;28;20037;-82
2021/08/06 04:55:36;;;;;;;3.80;3.50;;;13.20;99.90;;;;;;4970600;28;20038;-82
2021/08/06 04:58:03;;;;;;;3.10;2.72;;;13.20;99.90;;;;;;5050038;28;20118;-81
2021/08/06 05:00:28;;;;;;;3.22;3.03;;;13.20;99.90;;;;;;4951267;28;20499;-82
2021/08/06 05:02:54;;;;;;;5.80;3.78;;;13.30;99.90;;;;;;4968559;28;20038;-82
2021/08/06 05:05:20;;;;;;;5.80;3.80;;;13.30;99.90;;;;;;4986505;28;20066;-82
2021/08/06 05:07:50;;;;;;;2.78;2.58;;;13.30;99.90;;;;;;4969977;28;20473;-82
2021/08/06 05:10:18;;;;;;;2.92;2.72;;;13.30;99.90;;;;;;4971745;28;20469;-82
2021/08/06 05:12:44;;;;;;;3.42;2.97;;;13.30;99.90;;;;;;4986764;28;20110;-81
2021/08/06 05:15:10;;;;;;;4.13;3.72;;;13.30;99.90;;;;;;4971600;28;20110;-82
2021/08/06 05:17:36;;;;;;;4.32;3.92;;;13.30;99.90;;;;;;4987382;28;20038;-81
2021/08/06 05:20:03;;;;;;;4.30;3.90;;;13.40;99.90;;;;;;5056328;28;20019;-82
2021/08/06 05:22:29;;;;;;;3.78;3.38;;;13.30;99.90;;;;;;5055818;28;20038;-83
2021/08/06 05:24:54;;;;;;;3.72;3.35;;;13.40;99.90;;;;;;4972579;28;20043;-82
2021/08/06 05:27:20;;;;;;;4.72;3.85;;;13.30;99.90;;;;;;4971522;28;20022;-82
2021/08/06 05:29:45;;;;;;;3.70;3.28;;;13.30;99.90;;;;;;4973289;28;20019;-82
2021/08/06 05:32:11;;;;;;;6.55;5.07;;;13.30;99.90;;;;;;4971106;28;20029;-83
2021/08/06 05:34:37;;;;;;;3.78;3.40;;;13.40;99.90;;;;;;4971641;28;20117;-82
2021/08/06 05:37:03;;;;;;;4.10;3.05;;;13.40;99.90;;;;;;4969704;28;20039;-83
2021/08/06 05:39:28;;;;;;;3.72;3.40;;;13.40;99.90;;;;;;4973588;28;20492;-81
2021/08/06 05:41:54;;;;;;;3.15;2.95;;;13.40;99.90;;;;;;5056372;28;20026;-81
2021/08/06 05:44:19;;;;;;;5.70;5.20;;;13.40;99.90;;;;;;4973040;28;20046;-82
2021/08/06 05:46:45;;;;;;;5.70;4.90;;;13.40;99.90;;;;;;5056204;28;20395;-82
2021/08/06 05:49:11;;;;;;;5.20;4.43;;;13.40;99.90;;;;;;4969748;28;20023;-82
2021/08/06 05:51:36;;;;;;;4.30;3.90;;;13.40;99.90;;;;;;4987450;28;20073;-83
2021/08/06 05:54:03;;;;;;;5.25;4.75;;;13.40;99.90;;;;;;4971571;28;20033;-83
2021/08/06 05:56:30;;;;;;;3.47;3.17;;;13.50;99.90;;;;;;4971959;28;20038;-83
2021/08/06 05:58:55;;;;;;;3.63;3.22;;;13.40;99.90;;;;;;4971524;28;20038;-83
2021/08/06 06:01:21;;;;;;;2.92;2.72;;;13.40;99.90;;;;;;4970812;28;20030;-83
2021/08/06 06:03:46;;;;;;;4.35;3.25;;;13.40;99.90;;;;;;4972294;28;20042;-82
2021/08/06 06:06:12;;;;;;;3.42;3.13;;;13.30;99.90;;;;;;4972700;28;20030;-83
2021/08/06 06:08:38;;;;;;;4.30;3.90;;;13.30;99.90;;;;;;4983322;28;20027;-82
2021/08/06 06:11:03;;;;;;;3.60;3.30;;;13.30;99.90;;;;;;4960567;28;20020;-83
2021/08/06 06:13:29;;;;;;;3.10;2.90;;;13.30;99.90;;;;;;4983916;28;20117;-83
2021/08/06 06:15:55;;;;;;;4.47;3.97;;;13.30;99.90;;;;;;4969741;28;20038;-83
2021/08/06 06:18:21;;;;;;;4.80;4.40;;;13.30;99.90;;;;;;4970098;28;20106;-84
2021/08/06 06:20:46;;;;;;;4.22;3.83;;;13.20;99.90;;;;;;4969664;28;20429;-83
2021/08/06 06:23:13;;;;;;;3.20;2.90;;;13.30;99.90;;;;;;5052987;28;20039;-83
2021/08/06 06:25:39;;;;;;;4.07;3.55;;;13.20;99.90;;;;;;4971062;28;20030;-83
2021/08/06 06:28:05;;;;;;;3.60;3.30;;;13.20;99.90;;;;;;4986610;28;20419;-83
2021/08/06 06:30:32;;;;;;;6.10;3.75;;;13.20;99.90;;;;;;4971649;28;20110;-82
2021/08/06 06:33:00;;;;;;;3.38;3.08;;;13.20;99.90;;;;;;4969879;28;20065;-83
2021/08/06 06:35:26;;;;;;;3.83;3.45;;;13.10;99.90;;;;;;4971925;28;20031;-83
2021/08/06 06:37:52;;;;;;;3.47;3.17;;;13.20;99.90;;;;;;4969840;28;20027;-82
2021/08/06 06:40:19;;;;;;;4.63;3.53;;;13.10;99.90;;;;;;4972481;28;20041;-82
2021/08/06 06:42:45;;;;;;;3.40;3.10;;;13.10;99.90;;;;;;4963898;28;20444;-84
2021/08/06 06:45:12;;;;;;;3.78;3.08;;;13.20;99.90;;;;;;4953562;28;20466;-83
2021/08/06 06:47:39;;;;;;;3.53;3.30;;;13.20;99.90;;;;;;4969886;28;20023;-83
2021/08/06 06:50:09;;;;;;;3.35;3.05;;;13.20;99.90;;;;;;4966775;28;20016;-82
2021/08/06 06:52:35;;;;;;;4.93;3.70;;;13.20;99.90;;;;;;4955261;28;20113;-82
2021/08/06 06:55:01;;;;;;;3.78;3.47;;;13.20;99.90;;;;;;4966818;28;20492;-82
2021/08/06 06:57:26;;;;;;;4.00;3.47;;;13.20;99.90;;;;;;4968315;28;20027;-83
2021/08/06 06:59:54;;;;;;;3.40;3.20;;;13.30;99.90;;;;;;4966840;28;20034;-83
2021/08/06 07:02:20;;;;;;;3.58;3.28;;;13.30;99.90;;;;;;4972870;28;20050;-83
2021/08/06 07:04:45;;;;;;;3.45;3.25;;;13.30;99.90;;;;;;4968242;28;20420;-83
2021/08/06 07:07:11;;;;;;;3.63;3.33;;;13.30;99.90;;;;;;4985749;28;20015;-84
2021/08/06 07:09:37;;;;;;;3.88;3.58;;;13.40;99.90;;;;;;4970590;28;20038;-83
2021/08/06 07:12:02;;;;;;;3.50;3.20;;;13.40;99.90;;;;;;4986171;28;20027;-83
2021/08/06 07:14:28;;;;;;;3.30;3.03;;;13.30;99.90;;;;;;5055138;28;20369;-83
2021/08/06 07:16:54;;;;;;;3.47;3.17;;;13.40;99.90;;;;;;4966874;28;20027;-82
2021/08/06 07:19:19;;;;;;;3.80;3.45;;;13.40;99.90;;;;;;5052557;28;20023;-83
2021/08/06 07:21:48;;;;;;;3.45;3.10;;;13.40;99.90;;;;;;5051729;28;20188;-84
2021/08/06 07:24:14;;;;;;;4.80;3.28;;;13.50;99.90;;;;;;5052355;28;20216;-82
2021/08/06 07:26:39;;;;;;;3.38;3.17;;;13.50;99.90;;;;;;4967136;28;20035;-83
2021/08/06 07:29:05;;;;;;;5.07;3.22;;;13.50;99.90;;;;;;4969066;28;20030;-82
2021/08/06 07:31:31;;;;;;;3.53;3.22;;;13.50;99.90;;;;;;4968845;28;20047;-83
2021/08/06 07:33:57;;;;;;;4.90;4.38;;;13.60;99.90;;;;;;4968152;28;20492;-83
2021/08/06 07:36:22;;;;;;;4.25;2.85;;;13.60;99.90;;;;;;5049801;28;20039;-83
2021/08/06 07:38:48;;;;;;;3.47;3.20;;;13.60;99.90;;;;;;4967736;28;20038;-82
2021/08/06 07:41:13;;;;;;;3.08;2.88;;;13.60;99.90;;;;;;4963426;28;20108;-84
2021/08/06 07:43:39;;;;;;;3.03;2.83;;;13.60;99.90;;;;;;4984105;28;20049;-84
2021/08/06 07:46:05;;;;;;;3.45;3.15;;;13.50;99.90;;;;;;4969536;28;20047;-84
2021/08/06 07:48:30;;;;;;;3.63;2.85;;;13.60;99.90;;;;;;4968052;28;20076;-83
2021/08/06 07:50:56;;;;;;;3.58;3.28;;;13.60;99.90;;;;;;4969844;28;20035;-84
2021/08/06 07:53:22;;;;;;;3.70;3.40;;;13.60;99.90;;;;;;5050785;28;20481;-82
2021/08/06 07:55:47;;;;;;;5.50;3.60;;;13.60;99.90;;;;;;4984116;28;20039;-83
2021/08/06 07:58:13;;;;;;;4.05;3.65;;;13.60;99.90;;;;;;4980920;28;20531;-84
2021/08/06 08:00:39;;;;;;;3.72;3.42;;;13.60;99.90;;;;;;4969964;28;20019;-84
2021/08/06 08:03:04;;;;;;;3.75;3.45;;;13.60;99.90;;;;;;4969363;28;20031;-83
2021/08/06 08:05:30;;;;;;;3.40;3.10;;;13.60;99.90;;;;;;4969864;28;20058;-84
2021/08/06 08:07:56;;;;;;;3.45;3.22;;;13.60;99.90;;;;;;4970477;28;20401;-82
2021/08/06 08:10:22;;;;;;;3.53;3.22;;;13.60;99.90;;;;;;4971039;28;20027;-84
2021/08/06 08:12:47;;;;;;;3.53;3.33;;;13.50;99.90;;;;;;4970530;28;20030;-83
2021/08/06 08:15:13;;;;;;;3.30;3.00;;;13.50;99.90;;;;;;4985858;28;20015;-84
2021/08/06 08:17:39;;;;;;;2.95;2.75;;;13.50;99.90;;;;;;4966747;28;20092;-82
2021/08/06 08:20:05;;;;;;;3.05;2.75;;;13.50;99.90;;;;;;4982413;28;20031;-82
2021/08/06 08:22:31;;;;;;;3.60;3.30;;;13.50;99.90;;;;;;4966528;28;20488;-83
2021/08/06 08:24:57;;;;;;;4.15;3.85;;;13.60;99.90;;;;;;4968547;28;20054;-82
2021/08/06 08:27:22;;;;;;;3.67;3.38;;;13.60;99.90;;;;;;4969529;28;20019;-83
2021/08/06 08:29:48;;;;;;;4.00;3.70;;;13.60;99.90;;;;;;4970578;28;20038;-83
2021/08/06 08:32:15;;;;;;;4.03;3.67;;;13.60;99.90;;;;;;5052832;28;20410;-83
2021/08/06 08:34:41;;;;;;;5.40;3.83;;;13.60;99.90;;;;;;4970544;28;20402;-83
2021/08/06 08:37:06;;;;;;;4.75;3.92;;;13.70;99.90;;;;;;4967225;28;20027;-82
2021/08/06 08:39:34;;;;;;;4.22;3.38;;;13.70;99.90;;;;;;4972507;28;20064;-83
2021/08/06 08:42:00;;;;;;;3.88;3.28;;;13.70;99.90;;;;;;4988836;28;20030;-83
2021/08/06 08:44:26;;;;;;;4.15;3.85;;;13.70;99.90;;;;;;4988073;28;20545;-83
2021/08/06 08:46:52;;;;;;;3.83;3.53;;;13.70;99.90;;;;;;4972522;28;20027;-83
2021/08/06 08:49:23;;;;;;;3.85;3.47;;;13.70;99.90;;;;;;4973236;28;20494;-83
2021/08/06 08:51:50;;;;;;;3.47;3.17;;;13.70;99.90;;;;;;4972973;28;20023;-83
2021/08/06 08:54:16;;;;;;;2.97;2.78;;;13.80;99.90;;;;;;4973101;28;20084;-83
2021/08/06 08:56:45;;;;;;;2.53;2.33;;;13.70;99.90;;;;;;4971349;28;20027;-83
2021/08/06 08:59:11;;;;;;;2.80;2.60;;;13.70;99.90;;;;;;4971559;28;20026;-83
2021/08/06 09:01:36;;;;;;;2.80;2.60;;;13.70;99.90;;;;;;4973318;28;20031;-84
2021/08/06 09:04:25;;;;;;;3.15;2.47;;;13.70;99.90;;;;;;4971754;28;20035;-83
2021/08/06 09:06:52;;;;;;;2.70;2.50;;;13.70;99.90;;;;;;4971975;28;20019;-83
2021/08/06 09:09:21;;;;;;;2.95;2.75;;;13.60;99.90;;;;;;4986512;28;20105;-83
2021/08/06 09:11:48;;;;;;;3.53;3.22;;;13.70;99.90;;;;;;4971270;28;20333;-83
2021/08/06 09:14:19;;;;;;;4.03;3.00;;;13.80;99.90;;;;;;5055076;28;20416;-83
2021/08/06 09:16:57;;;;;;;4.40;4.00;;;13.80;99.90;;;;;;4970471;28;20038;-83
2021/08/06 09:19:24;;;;;;;3.22;3.03;;;13.80;99.90;;;;;;4970813;28;20030;-84
2021/08/06 09:21:50;;;;;;;3.80;3.50;;;13.80;99.90;;;;;;4972628;28;20102;-83
2021/08/06 09:24:16;;;;;;;3.80;3.38;;;13.90;99.90;;;;;;5055577;28;20125;-83
2021/08/06 09:26:44;;;;;;;4.15;3.75;;;13.90;99.90;;;;;;5051806;28;20062;-83
2021/08/06 09:29:17;;;;;;;4.07;3.78;;;14.00;99.90;;;;;;4966854;28;20110;-83
2021/08/06 09:31:56;;;;;;;4.35;3.50;;;13.90;99.90;;;;;;4952125;28;20053;-83
2021/08/06 09:34:29;;;;;;;4.00;3.70;;;14.00;99.90;;;;;;4952143;28;20035;-84
2021/08/06 09:37:00;;;;;;;6.20;4.22;;;14.10;99.90;;;;;;4955692;28;20069;-84
2021/08/06 09:39:31;;;;;;;3.78;3.28;;;14.10;99.90;;;;;;4972509;28;20564;-84
2021/08/06 09:41:56;;;;;;;3.75;3.45;;;14.20;99.90;;;;;;4971915;28;20076;-84
2021/08/06 09:44:25;;;;;;;4.57;3.75;;;14.20;99.90;;;;;;5056537;28;20077;-84
2021/08/06 09:46:51;;;;;;;4.45;4.00;;;14.30;99.90;;;;;;4971406;28;20019;-84
2021/08/06 09:49:18;;;;;;;3.55;3.22;;;14.40;99.90;;;;;;4973055;28;20023;-83
2021/08/06 09:51:47;;;;;;;3.75;3.45;;;14.50;99.90;;;;;;4987246;28;20523;-84
2021/08/06 09:54:24;;;;;;;3.28;3.08;;;14.60;99.90;;;;;;5056544;28;20121;-84
2021/08/06 09:57:02;;;;;;;5.35;4.90;;;14.70;99.90;;;;;;5056078;28;20495;-84
2021/08/06 09:59:30;;;;;;;4.15;3.65;;;14.90;99.90;;;;;;4971793;28;20499;-84
2021/08/06 10:02:25;;;;;;;3.83;3.53;;;14.90;99.90;;;;;;4972246;28;20062;-84
2021/08/06 10:05:08;;;;;;;4.32;3.20;;;14.90;99.90;;;;;;4979213;28;20081;-84
2021/08/06 10:07:38;;;;;;;3.65;3.00;;;15.00;99.90;;;;;;4971080;28;20476;-84
2021/08/06 10:10:07;;;;;;;27.98;10.20;;;15.30;99.90;;;;;;4971431;28;20023;-84
2021/08/06 10:12:33;;;;;;;21.63;7.85;;;15.50;99.90;;;;;;4970938;28;20015;-84
2021/08/06 10:14:59;;;;;;;4.50;3.95;;;15.70;99.90;;;;;;4972599;28;20418;-84
2021/08/06 10:17:25;;;;;;;6.38;4.03;;;15.70;99.90;;;;;;4970888;28;20027;-84
2021/08/06 10:19:52;;;;;;;32.08;10.23;;;15.90;99.90;;;;;;4971388;28;20023;-84
2021/08/06 10:22:18;;;;;;;21.45;8.15;;;15.90;99.90;;;;;;4970796;28;20211;-84
2021/08/06 10:24:49;;;;;;;3.88;3.42;;;15.80;99.90;;;;;;4972601;28;20066;-84
2021/08/06 10:27:23;;;;;;;5.20;3.70;;;15.80;99.90;;;;;;4970638;28;20369;-84
2021/08/06 10:29:59;;;;;;;2.70;2.50;;;15.60;99.90;;;;;;4972554;28;20027;-84
2021/08/06 10:32:25;;;;;;;3.78;3.25;;;15.30;99.90;;;;;;4986874;28;20027;-84
2021/08/06 10:35:30;;;;;;;3.78;2.65;;;15.30;99.90;;;;;;4971226;28;20026;-84
2021/08/06 10:38:02;;;;;;;3.80;2.92;;;15.30;99.90;;;;;;4978688;28;20441;-84
2021/08/06 10:43:35;;;;;;;3.30;3.00;;;15.60;99.90;;;;;;4972046;28;20310;-84
2021/08/06 10:46:01;;;;;;;4.38;2.97;;;15.80;99.90;;;;;;4972276;28;20027;-84
2021/08/06 10:48:39;;;;;;;3.08;2.78;;;16.00;99.90;;;;;;4971636;28;20495;-84
2021/08/06 10:51:19;;;;;;;3.45;3.20;;;16.00;99.90;;;;;;4971001;28;20030;-84
2021/08/06 10:53:54;;;;;;;4.03;2.65;;;16.00;99.90;;;;;;4950651;29;20473;-83
2021/08/06 10:56:22;;;;;;;4.88;3.33;;;16.00;99.90;;;;;;4966031;28;20540;-83
2021/08/06 10:58:47;;;;;;;3.80;3.50;;;16.00;99.90;;;;;;4968976;28;20058;-83
2021/08/06 11:01:29;;;;;;;4.25;3.50;;;15.90;99.90;;;;;;4970293;28;20051;-83
2021/08/06 11:03:58;;;;;;;5.05;3.60;;;15.80;99.90;;;;;;4968731;28;20365;-83
2021/08/06 11:06:34;;;;;;;3.63;3.33;;;15.70;99.90;;;;;;4971558;28;20057;-83
2021/08/06 11:09:00;;;;;;;3.67;3.28;;;15.50;99.90;;;;;;4968104;28;20026;-83
2021/08/06 11:11:49;;;;;;;4.07;3.65;;;15.30;99.90;;;;;;4970054;28;20026;-83
2021/08/06 11:14:33;;;;;;;2.80;2.60;;;15.10;99.90;;;;;;4979093;28;20026;-83
2021/08/06 11:17:06;;;;;;;3.97;2.95;;;14.70;99.90;;;;;;4966385;28;20031;-83
2021/08/06 11:19:33;;;;;;;2.35;2.25;;;14.60;99.90;;;;;;4985331;28;20038;-83
2021/08/06 11:22:00;;;;;;;2.65;2.05;;;14.40;99.90;;;;;;4982674;28;20056;-83
2021/08/06 11:24:33;;;;;;;2.78;2.58;;;14.30;99.90;;;;;;4968541;28;20042;-83
2021/08/06 11:26:59;;;;;;;4.65;2.70;;;14.40;99.90;;;;;;4966547;28;20019;-83
2021/08/06 11:29:25;;;;;;;3.65;3.35;;;14.70;99.90;;;;;;4970282;28;20034;-83
2021/08/06 11:32:03;;;;;;;5.80;3.05;;;14.80;99.90;;;;;;4984005;28;20019;-83
2021/08/06 11:34:29;;;;;;;5.03;2.42;;;15.10;99.90;;;;;;4969050;28;20113;-84
2021/08/06 11:37:00;;;;;;;2.75;2.55;;;15.40;99.90;;;;;;4968786;28;20114;-84
2021/08/06 11:39:26;;;;;;;7.53;2.88;;;15.70;99.90;;;;;;4985007;28;20039;-83
2021/08/06 11:41:53;;;;;;;3.67;2.67;;;16.00;99.90;;;;;;4985006;28;20538;-84
2021/08/06 11:44:19;;;;;;;3.28;2.78;;;15.90;99.90;;;;;;4966401;28;20031;-84
2021/08/06 11:46:53;;;;;;;2.95;2.70;;;15.90;99.90;;;;;;4982388;28;20514;-83
2021/08/06 11:49:19;;;;;;;3.10;2.80;;;15.80;99.90;;;;;;4971176;28;20377;-84
2021/08/06 11:51:53;;;;;;;3.92;3.05;;;15.70;99.90;;;;;;4971360;28;20038;-83
2021/08/06 11:54:22;;;;;;;2.92;2.65;;;15.70;99.90;;;;;;4971255;28;20384;-84
2021/08/06 11:56:56;;;;;;;3.03;2.83;;;15.70;99.90;;;;;;4986143;28;20388;-83
2021/08/06 11:59:22;;;;;;;2.75;2.50;;;15.70;99.90;;;;;;4986061;28;20027;-83
2021/08/06 12:01:48;;;;;;;4.13;2.95;;;15.80;99.90;;;;;;4969953;28;20069;-83
2021/08/06 12:04:13;;;;;;;2.55;2.35;;;15.80;99.90;;;;;;4986047;28;20035;-83
2021/08/06 12:06:43;;;;;;;3.15;2.80;;;15.90;99.90;;;;;;4971124;28;20385;-84
2021/08/06 12:09:09;;;;;;;3.72;3.28;;;16.10;99.90;;;;;;4969788;28;20043;-83
2021/08/06 12:11:46;;;;;;;4.07;2.75;;;16.20;99.90;;;;;;4969800;28;20023;-83
2021/08/06 12:14:12;;;;;;;4.55;2.60;;;16.20;99.90;;;;;;4987660;28;20027;-83
2021/08/06 12:16:40;;;;;;;5.82;2.10;;;16.00;99.90;;;;;;4972495;28;20034;-83
2021/08/06 12:19:07;;;;;;;3.05;2.30;;;16.00;99.90;;;;;;4974629;28;20362;-83
2021/08/06 12:21:36;;;;;;;2.10;2.00;;;15.90;99.90;;;;;;4974088;28;20489;-83
2021/08/06 12:24:10;;;;;;;2.38;2.17;;;15.70;99.90;;;;;;4974247;28;20034;-83
2021/08/06 12:26:35;;;;;;;2.38;1.92;;;15.70;99.90;;;;;;5057377;28;20034;-83
2021/08/06 12:29:15;;;;;;;2.42;2.22;;;15.80;99.90;;;;;;4973215;28;20411;-83
2021/08/06 12:31:55;;;;;;;7.70;3.13;;;15.70;99.90;;;;;;4972597;28;20110;-83
2021/08/06 12:34:34;;;;;;;3.45;2.30;;;15.70;99.90;;;;;;4974443;28;20110;-83
2021/08/06 12:37:09;;;;;;;5.60;3.28;;;15.70;99.90;;;;;;4973007;28;20096;-83
2021/08/06 12:39:48;;;;;;;2.13;1.92;;;15.90;99.90;;;;;;4974549;28;20553;-83
2021/08/06 12:42:14;;;;;;;6.45;2.58;;;15.90;99.90;;;;;;4972348;28;20315;-83
2021/08/06 12:44:40;;;;;;;2.10;1.88;;;15.90;99.90;;;;;;4973605;28;20042;-83
2021/08/06 12:47:12;;;;;;;5.07;2.25;;;15.80;99.90;;;;;;4973474;28;20109;-83
2021/08/06 12:49:41;;;;;;;3.28;2.15;;;15.70;99.90;;;;;;4974219;28;20023;-83
2021/08/06 12:52:17;;;;;;;3.35;2.20;;;15.70;99.90;;;;;;4972311;28;20081;-83
2021/08/06 12:54:46;;;;;;;3.00;2.70;;;15.60;99.90;;;;;;5055149;28;20031;-83